EDT,Max TemperatureF,Mean TemperatureF,Min TemperatureF,Max Dew PointF,MeanDew PointF,Min DewpointF,Max Humidity, Mean Humidity, Min Humidity, Max Sea Level PressureIn, Mean Sea Level PressureIn, Min Sea Level PressureIn, Max VisibilityMiles, Mean VisibilityMiles, Min VisibilityMiles, Max Wind SpeedMPH, Mean Wind SpeedMPH, Max Gust SpeedMPH,PrecipitationIn, CloudCover, Events, WindDirDegrees
2012-9-1,91,84,79,77,75,73,90,74,59,30.13,30.08,30.03,10,10,10,17,5,17,0.00,2,Rain,41
2012-9-2,89,84,75,75,73,72,88,76,59,30.06,30.03,29.99,10,10,9,17,7,22,0.02,3,Rain,47
2012-9-3,89,82,75,76,74,72,94,78,63,30.06,30.02,29.99,10,10,10,14,4,20,0.08,2,Rain,118
2012-9-4,90,81,73,75,73,70,94,80,57,30.06,30.02,29.96,10,9,1,22,5,31,0.57,4,Rain-Thunderstorm,153
2012-9-5,89,80,71,75,72,66,97,84,59,30.04,30.01,29.95,10,9,1,24,7,32,1.14,4,Rain-Thunderstorm,144
2012-9-6,89,82,75,76,73,69,97,84,63,30.08,30.02,29.99,10,9,2,10,2,,0.53,3,Rain,56
2012-9-7,88,80,73,76,73,68,97,81,67,30.03,29.99,29.94,10,8,0,28,4,41,2.33,3,Rain-Thunderstorm,151
2012-9-8,91,82,75,76,73,70,94,74,54,30.01,29.95,29.91,10,10,10,16,5,21,0.00,1,Thunderstorm,193
2012-9-9,91,83,75,75,73,70,91,71,52,30.01,29.97,29.93,10,10,10,15,8,22,0.00,0,,239
2012-9-10,90,84,78,78,75,73,96,79,59,30.03,30.00,29.96,10,10,9,21,7,26,0.27,2,,274
2012-9-11,91,84,78,77,76,73,96,84,61,30.07,30.04,30.00,10,10,7,15,5,,0.15,3,Rain-Thunderstorm,33
2012-9-12,89,84,79,75,73,71,79,71,61,30.08,30.03,29.99,10,10,10,17,11,25,0.00,2,,65
2012-9-13,82,80,77,75,73,72,90,80,71,30.09,30.02,29.98,10,10,10,22,13,32,0.02,5,Rain,76
2012-9-14,88,81,75,75,74,70,94,77,63,30.03,30.00,29.97,10,10,10,17,7,20,0.00,3,,80
2012-9-15,89,82,75,75,74,70,90,78,63,30.05,30.02,29.98,10,10,10,15,5,20,0.00,3,Rain,73
2012-9-16,86,80,75,75,73,70,94,81,65,30.06,30.02,29.98,10,10,10,12,5,,0.34,3,Rain,95
2012-9-17,89,80,73,76,73,71,97,81,61,30.04,29.99,29.93,10,10,10,16,6,18,0.00,3,Rain,124
2012-9-18,93,83,75,76,74,73,96,79,54,30.02,29.98,29.91,10,10,9,26,8,40,0.09,2,Rain-Thunderstorm,220
2012-9-19,90,82,75,76,74,70,96,80,53,30.06,30.00,29.96,10,10,10,9,5,,0.02,0,Rain,185
2012-9-20,90,83,77,77,75,74,96,80,63,30.04,30.00,29.94,10,10,10,14,4,,0.00,1,,63
2012-9-21,88,80,73,76,74,71,100,86,63,30.00,29.96,29.92,10,9,1,20,5,26,1.25,3,Rain-Thunderstorm,53
2012-9-22,84,78,73,75,73,72,100,93,76,30.04,29.99,29.93,10,8,0,16,4,18,2.29,5,Fog-Rain-Thunderstorm,173
2012-9-23,84,78,75,77,75,73,100,92,74,30.07,30.03,30.00,10,10,10,10,2,,0.24,4,Rain,13
2012-9-24,86,78,73,76,73,70,100,82,65,30.07,30.03,29.99,10,10,10,13,5,,0.01,1,,4
2012-9-25,87,81,75,74,71,69,87,74,57,30.09,30.04,30.00,10,10,10,12,6,,0.00,1,,40
2012-9-26,87,82,77,75,74,72,90,80,67,30.09,30.06,30.02,10,10,10,15,4,,0.02,1,Rain,71
2012-9-27,87,82,77,77,75,73,94,82,66,30.09,30.05,30.00,10,10,10,10,4,,0.01,1,Rain-Thunderstorm,53
2012-9-28,88,82,75,77,74,72,94,81,63,30.04,29.99,29.95,10,10,10,12,4,,0.00,1,Thunderstorm,40
2012-9-29,89,82,75,76,74,72,94,79,61,29.99,29.93,29.87,10,10,10,12,5,,0.00,2,,68
2012-9-30,88,82,75,76,73,69,94,76,53,29.93,29.88,29.81,10,10,10,14,5,18,0.00,2,,141